Please enter the email address associated with your User account. Your username will be emailed to the email address on file.

METAR TAF

[Source: ADDS]
METAR
LFCR 110030Z AUTO 11008KT 9999 FEW015 OVC082 08/06 Q1011 NOSIG =
LFCR 102300Z 1100/1124 13012KT CAVOK PROB30 TEMPO 1103/1106 BKN013 BECMG 1107/1109 BKN020 BECMG 1110/1111 28012KT RA FEW012 BKN018 BECMG 1117/1118 NSW SCT020 BECMG 1121/1123 OVC010 LFBA 110030Z AUTO 14007KT 110V200 9999 OVC016/// ///TCU 13/10 Q1010 =
LFBA 101400Z 1015/1024 12012KT CAVOK PROB40 TEMPO 1015/1023 13015G25KT -SHRA FEW025CB SCT040TCU BKN050 PROB30 TEMPO 1016/1018 4000 TSRA SCT025CB BKN040TCU LFSL 110030Z AUTO 15008KT CAVOK 09/07 Q1010 =
AMD LFSL 101708Z 1017/1024 16010KT 9999 BKN040 TEMPO 1017/1020 -SHRA SCT030TCU BKN035 PROB40 TEMPO 1017/1020 4000 -TSRA FEW025CB BKN030TCU LFLW 110030Z AUTO 09006KT CAVOK 08/05 Q1011 =
LFLW 101400Z 1015/1024 14012KT 9999 BKN025 BECMG 1020/1022 BKN013
TAF
LFCR 102300Z 1100/1124 13012KT CAVOK PROB30 TEMPO 1103/1106 BKN013 BECMG 1107/1109 BKN020 BECMG 1110/1111 28012KT RA FEW012 BKN018 BECMG 1117/1118 NSW SCT020 BECMG 1121/1123 OVC010 =
LFBA 101400Z 1015/1024 12012KT CAVOK PROB40 TEMPO 1015/1023 13015G25KT -SHRA FEW025CB SCT040TCU BKN050 PROB30 TEMPO 1016/1018 4000 TSRA SCT025CB BKN040TCU =
AMD LFSL 101708Z 1017/1024 16010KT 9999 BKN040 TEMPO 1017/1020 -SHRA SCT030TCU BKN035 PROB40 TEMPO 1017/1020 4000 -TSRA FEW025CB BKN030TCU =
LFLW 101400Z 1015/1024 14012KT 9999 BKN025 BECMG 1020/1022 BKN013 =
SR / SS: 05:16 / 18:33 UTC (LFCC 2021-04-11)